createdAt,value
2022-09-01T00:00:35.564Z,77.98
2022-09-01T00:03:37.668Z,77.96
2022-09-01T00:06:40.990Z,78.60
2022-09-01T00:09:43.199Z,79.63
2022-09-01T00:12:45.855Z,79.60
2022-09-01T00:15:47.948Z,79.22
2022-09-01T00:18:52.043Z,80.23
2022-09-01T00:21:54.182Z,80.14
2022-09-01T00:24:56.739Z,79.98
2022-09-01T00:28:00.407Z,79.67
2022-09-01T00:31:03.094Z,79.67
2022-09-01T00:34:05.368Z,79.93
2022-09-01T00:37:07.820Z,79.82
2022-09-01T00:40:11.767Z,81.49
2022-09-01T00:43:15.045Z,82.08
2022-09-01T00:46:55.304Z,81.21
2022-09-01T00:49:57.987Z,80.83
2022-09-01T00:53:00.858Z,81.25
2022-09-01T00:56:04.408Z,80.27
2022-09-01T00:59:07.255Z,80.61
2022-09-01T01:02:11.019Z,81.55
2022-09-01T01:05:14.427Z,81.53
2022-09-01T01:08:19.957Z,81.30
2022-09-01T01:11:22.182Z,82.12
2022-09-01T01:14:24.307Z,82.28
2022-09-01T01:17:26.402Z,81.78
2022-09-01T01:20:47.248Z,82.53
2022-09-01T01:24:02.218Z,83.23
2022-09-01T01:27:05.261Z,81.51
2022-09-01T01:30:11.141Z,81.41
2022-09-01T01:33:13.402Z,81.19
2022-09-01T01:36:35.896Z,81.36
2022-09-01T01:39:40.939Z,79.70
2022-09-01T01:42:48.590Z,80.55
2022-09-01T01:45:53.517Z,79.94
2022-09-01T01:49:02.195Z,79.35
2022-09-01T01:52:08.071Z,81.04
2022-09-01T01:55:12.730Z,79.30
2022-09-01T01:58:21.985Z,78.83
2022-09-01T02:01:28.876Z,77.96
2022-09-01T02:04:34.227Z,80.12
2022-09-01T02:07:42.902Z,78.67
2022-09-01T02:10:46.727Z,75.80
2022-09-01T02:13:49.744Z,77.41
2022-09-01T02:16:53.267Z,78.62
2022-09-01T02:19:57.538Z,78.95
2022-09-01T02:23:10.640Z,79.83
2022-09-01T02:26:17.548Z,79.51
2022-09-01T02:29:22.908Z,79.72
2022-09-01T02:32:25.250Z,80.17
2022-09-01T02:35:37.905Z,79.27
2022-09-01T02:38:42.978Z,79.71
2022-09-01T02:41:48.113Z,80.42
2022-09-01T02:44:50.267Z,80.22
2022-09-01T02:47:54.271Z,79.49
2022-09-01T02:50:57.359Z,80.97
2022-09-01T02:54:01.370Z,80.88
2022-09-01T02:57:04.097Z,80.60
2022-09-01T03:00:20.785Z,80.67
2022-09-01T03:03:23.767Z,80.07
2022-09-01T03:06:26.570Z,81.33
2022-09-01T03:09:28.651Z,79.22
2022-09-01T03:12:31.308Z,81.40
2022-09-01T03:15:34.117Z,80.90
2022-09-01T03:18:36.978Z,80.89
2022-09-01T03:21:41.768Z,82.42
2022-09-01T03:24:43.844Z,81.40
2022-09-01T03:27:47.427Z,81.80
2022-09-01T03:30:52.082Z,83.09
2022-09-01T03:33:57.083Z,82.66
2022-09-01T03:37:08.054Z,82.12
2022-09-01T03:40:12.083Z,83.30
2022-09-01T03:43:14.220Z,82.73
2022-09-01T03:46:21.740Z,84.64
2022-09-01T03:49:28.743Z,84.62
2022-09-01T03:52:33.003Z,84.46
2022-09-01T03:55:35.712Z,83.78
2022-09-01T03:58:38.915Z,83.69
2022-09-01T04:01:43.747Z,84.56
2022-09-01T04:04:46.067Z,83.93
2022-09-01T04:07:48.662Z,85.39
2022-09-01T04:10:54.433Z,85.00
2022-09-01T04:13:57.225Z,81.99
2022-09-01T04:17:17.835Z,82.76
2022-09-01T04:20:21.931Z,82.80
2022-09-01T04:23:33.625Z,82.77
2022-09-01T04:26:42.940Z,82.43
2022-09-01T04:29:46.832Z,81.78
2022-09-01T04:32:48.932Z,82.54
2022-09-01T04:35:52.182Z,82.57
2022-09-01T04:39:00.704Z,82.59
2022-09-01T04:42:06.917Z,80.76
2022-09-01T04:45:11.262Z,81.95
2022-09-01T04:48:22.163Z,83.31
2022-09-01T04:51:28.110Z,83.04
2022-09-01T04:54:32.930Z,83.13
2022-09-01T04:57:35.305Z,82.60
2022-09-01T05:00:37.787Z,82.72
2022-09-01T05:03:39.998Z,83.16
2022-09-01T05:07:10.271Z,82.74
2022-09-01T05:10:14.579Z,82.83
2022-09-01T05:13:23.652Z,83.57
2022-09-01T05:16:28.000Z,81.86
2022-09-01T05:19:32.791Z,81.84
2022-09-01T05:22:35.853Z,82.33
2022-09-01T05:25:44.162Z,81.45
2022-09-01T05:28:48.571Z,81.58
2022-09-01T05:31:52.698Z,80.50
2022-09-01T05:34:55.420Z,80.67
2022-09-01T05:37:59.504Z,80.18
2022-09-01T05:41:04.075Z,79.35
2022-09-01T05:44:08.198Z,80.69
2022-09-01T05:47:20.569Z,79.42
2022-09-01T05:50:28.276Z,80.00
2022-09-01T05:53:31.103Z,78.83
2022-09-01T05:56:33.924Z,77.74
2022-09-01T05:59:36.049Z,79.78
2022-09-01T06:02:42.876Z,79.64
2022-09-01T06:05:52.636Z,79.27
2022-09-01T06:08:58.239Z,78.47
2022-09-01T06:12:02.008Z,78.69
2022-09-01T06:15:07.243Z,79.96
2022-09-01T06:18:12.782Z,80.14
2022-09-01T06:21:24.738Z,80.08
2022-09-01T06:24:27.427Z,80.56
2022-09-01T06:27:29.888Z,79.73
2022-09-01T06:30:36.506Z,77.91
2022-09-01T06:33:44.675Z,78.48
2022-09-01T06:36:49.619Z,79.35
2022-09-01T06:39:52.366Z,78.77
2022-09-01T06:42:54.990Z,79.77
2022-09-01T06:45:57.312Z,80.65
2022-09-01T06:48:59.494Z,78.92
2022-09-01T06:52:05.757Z,80.22
2022-09-01T06:55:14.338Z,80.63
2022-09-01T06:58:16.624Z,81.17
2022-09-01T07:01:27.627Z,79.39
2022-09-01T07:04:31.610Z,78.85
2022-09-01T07:08:04.840Z,79.43
2022-09-01T07:18:14.910Z,78.87
2022-09-01T07:24:40.564Z,78.48
2022-09-01T07:28:02.139Z,78.51
2022-09-01T07:42:56.830Z,77.15
2022-09-01T07:45:25.410Z,74.31
2022-09-01T07:49:02.641Z,74.46
2022-09-01T07:51:55.298Z,73.69
2022-09-01T07:54:58.392Z,73.49
2022-09-01T07:58:00.552Z,74.38
2022-09-01T08:01:11.473Z,71.46
2022-09-01T08:04:15.270Z,69.87
2022-09-01T08:07:18.282Z,70.00
2022-09-01T08:10:21.067Z,69.47
2022-09-01T08:13:24.869Z,68.52
2022-09-01T08:16:39.424Z,67.46
2022-09-01T08:19:44.066Z,64.79
2022-09-01T08:22:48.934Z,66.07
2022-09-01T08:26:10.120Z,66.44
2022-09-01T08:29:12.383Z,64.78
2022-09-01T08:32:17.513Z,64.57
2022-09-01T08:35:20.661Z,63.88
2022-09-01T08:38:23.368Z,61.57
2022-09-01T08:41:46.817Z,61.48
2022-09-01T08:44:54.967Z,61.38
2022-09-01T08:51:58.063Z,59.44
2022-09-01T08:55:26.456Z,58.07
2022-09-01T08:58:32.337Z,57.90
2022-09-01T09:02:12.125Z,56.35
2022-09-01T09:05:43.698Z,55.43
2022-09-01T09:09:05.651Z,57.72
2022-09-01T09:12:49.141Z,57.26
2022-09-01T09:16:23.082Z,58.00
2022-09-01T09:19:29.183Z,57.99
2022-09-01T09:22:32.318Z,57.56
2022-09-01T09:25:34.445Z,57.83
2022-09-01T09:28:40.143Z,57.89
2022-09-01T09:31:49.972Z,58.31
2022-09-01T09:34:52.767Z,57.36
2022-09-01T09:37:56.234Z,57.47
2022-09-01T09:41:20.625Z,58.68
2022-09-01T09:44:29.463Z,55.76
2022-09-01T09:47:43.937Z,56.63
2022-09-01T09:50:47.074Z,58.11
2022-09-01T09:53:50.476Z,55.46
2022-09-01T09:57:11.723Z,51.76
2022-09-01T10:00:26.069Z,53.70
2022-09-01T10:03:42.323Z,56.00
2022-09-01T10:06:47.448Z,56.41
2022-09-01T10:09:49.832Z,55.65
2022-09-01T10:12:53.749Z,54.82
2022-09-01T10:16:16.318Z,54.34
2022-09-01T10:19:24.302Z,56.70
2022-09-01T10:22:26.443Z,54.50
2022-09-01T10:25:33.096Z,55.42
2022-09-01T10:28:49.621Z,54.09
2022-09-01T10:32:09.422Z,52.93
2022-09-01T10:35:40.686Z,51.16
2022-09-01T10:38:50.438Z,53.45
2022-09-01T10:41:59.971Z,51.17
2022-09-01T10:45:03.027Z,50.97
2022-09-01T10:48:32.497Z,51.66
2022-09-01T10:51:50.576Z,50.12
2022-09-01T10:54:56.772Z,46.94
2022-09-01T11:01:49.610Z,49.04
2022-09-01T11:04:52.165Z,46.37
2022-09-01T11:08:02.474Z,46.21
2022-09-01T11:11:31.451Z,42.97
2022-09-01T11:14:35.876Z,42.76
2022-09-01T11:18:07.986Z,42.00
2022-09-01T11:21:25.650Z,43.05
2022-09-01T11:24:40.421Z,43.79
2022-09-01T11:27:51.364Z,42.92
2022-09-01T11:31:04.102Z,42.50
2022-09-01T11:34:19.264Z,41.33
2022-09-01T11:37:23.349Z,39.12
2022-09-01T11:40:32.435Z,41.29
2022-09-01T11:43:35.036Z,41.70
2022-09-01T11:46:37.539Z,44.60
2022-09-01T11:49:51.417Z,39.80
2022-09-01T11:53:04.516Z,40.64
2022-09-01T11:56:20.177Z,43.63
2022-09-01T11:59:36.388Z,43.50
2022-09-01T12:02:50.764Z,46.48
2022-09-01T12:06:02.897Z,45.33
2022-09-01T12:09:05.217Z,47.89
2022-09-01T12:12:08.520Z,43.58
2022-09-01T12:15:24.674Z,40.27
2022-09-01T12:18:35.954Z,41.74
2022-09-01T12:21:42.995Z,44.30
2022-09-01T12:24:48.206Z,41.68
2022-09-01T12:27:50.899Z,40.12
2022-09-01T12:30:53.778Z,42.28
2022-09-01T12:33:56.608Z,43.15
2022-09-01T12:37:21.323Z,41.15
2022-09-01T12:40:34.194Z,43.16
2022-09-01T12:43:39.035Z,42.36
2022-09-01T12:46:43.456Z,43.41
2022-09-01T12:49:52.089Z,45.20
2022-09-01T12:52:58.806Z,43.66
2022-09-01T12:56:16.527Z,40.18
2022-09-01T12:59:36.399Z,42.51
2022-09-01T13:02:40.916Z,42.90
2022-09-01T13:05:51.808Z,42.45
2022-09-01T13:08:54.036Z,45.25
2022-09-01T13:12:16.217Z,45.08
2022-09-01T13:15:18.531Z,46.81
2022-09-01T13:18:24.580Z,47.45
2022-09-01T13:21:27.651Z,42.93
2022-09-01T13:24:31.634Z,38.64
2022-09-01T13:27:34.146Z,35.61
2022-09-01T13:30:36.365Z,42.13
2022-09-01T13:37:00.618Z,44.07
2022-09-01T13:40:04.323Z,38.32
2022-09-01T13:43:08.563Z,41.72
2022-09-01T13:46:11.660Z,43.86
2022-09-01T13:52:36.084Z,45.07
2022-09-01T13:55:41.382Z,38.05
2022-09-01T13:58:43.516Z,36.30
2022-09-01T14:01:48.543Z,43.36
2022-09-01T14:04:50.732Z,46.50
2022-09-01T14:07:52.982Z,45.77
2022-09-01T14:10:55.149Z,39.87
2022-09-01T14:13:57.322Z,41.83
2022-09-01T14:16:59.534Z,45.59
2022-09-01T14:20:02.125Z,47.40
2022-09-01T14:23:04.915Z,37.29
2022-09-01T14:26:14.096Z,34.98
2022-09-01T14:29:16.722Z,42.97
2022-09-01T14:32:22.565Z,45.03
2022-09-01T14:35:24.935Z,35.90
2022-09-01T14:38:27.071Z,34.67
2022-09-01T14:41:29.178Z,38.68
2022-09-01T14:44:33.650Z,43.49
2022-09-01T14:47:36.411Z,36.88
2022-09-01T14:50:42.109Z,34.64
2022-09-01T14:53:44.263Z,31.35
2022-09-01T15:00:12.196Z,30.99
2022-09-01T15:03:15.759Z,39.37
2022-09-01T15:06:20.854Z,41.86
2022-09-01T15:09:23.003Z,36.70
2022-09-01T15:12:25.907Z,34.51
2022-09-01T15:15:28.860Z,30.06
2022-09-01T15:18:31.245Z,31.16
2022-09-01T15:21:34.016Z,30.82
2022-09-01T15:24:36.374Z,30.30
2022-09-01T15:27:41.476Z,27.06
2022-09-01T15:30:45.603Z,33.08
2022-09-01T15:33:48.640Z,32.47
2022-09-01T15:36:50.736Z,32.39
2022-09-01T15:39:52.818Z,39.92
2022-09-01T15:42:55.791Z,32.38
2022-09-01T15:45:58.703Z,30.71
2022-09-01T15:49:05.417Z,28.56
2022-09-01T15:52:07.527Z,31.65
2022-09-01T15:55:09.614Z,39.74
2022-09-01T15:58:14.748Z,32.57
2022-09-01T16:01:17.866Z,32.21
2022-09-01T16:04:22.984Z,30.06
2022-09-01T16:07:29.452Z,28.83
2022-09-01T16:10:35.068Z,27.29
2022-09-01T16:13:40.595Z,30.04
2022-09-01T16:17:00.339Z,28.97
2022-09-01T16:20:12.294Z,30.12
2022-09-01T16:23:20.727Z,31.28
2022-09-01T16:26:23.794Z,35.67
2022-09-01T16:29:46.847Z,30.87
2022-09-01T16:32:49.151Z,33.86
2022-09-01T16:36:26.550Z,30.95
2022-09-01T16:39:28.554Z,32.64
2022-09-01T16:42:47.058Z,31.01
2022-09-01T16:46:07.757Z,31.55
2022-09-01T16:49:40.142Z,33.04
2022-09-01T16:53:17.048Z,38.88
2022-09-01T16:56:32.519Z,42.29
2022-09-01T16:59:48.104Z,36.07
2022-09-01T17:02:59.843Z,34.01
2022-09-01T17:06:15.186Z,34.99
2022-09-01T17:09:35.399Z,33.46
2022-09-01T17:12:49.060Z,37.30
2022-09-01T17:15:57.498Z,43.54
2022-09-01T17:19:00.791Z,45.56
2022-09-01T17:22:08.452Z,47.88
2022-09-01T17:25:26.087Z,47.87
2022-09-01T17:28:38.954Z,45.72
2022-09-01T17:32:19.317Z,42.58
2022-09-01T17:35:38.021Z,39.65
2022-09-01T17:39:09.019Z,40.09
2022-09-01T17:42:27.852Z,39.69
2022-09-01T17:45:37.143Z,40.30
2022-09-01T17:48:43.960Z,40.45
2022-09-01T17:52:08.088Z,41.37
2022-09-01T17:55:37.185Z,42.03
2022-09-01T17:58:56.493Z,41.39
2022-09-01T18:02:42.792Z,45.49
2022-09-01T18:06:14.563Z,47.03
2022-09-01T18:09:18.296Z,46.87
2022-09-01T18:12:29.284Z,45.73
2022-09-01T18:15:43.171Z,46.04
2022-09-01T18:18:53.163Z,47.11
2022-09-01T18:22:01.626Z,50.21
2022-09-01T18:25:11.144Z,50.56
2022-09-01T18:28:14.770Z,51.01
2022-09-01T18:31:35.189Z,50.03
2022-09-01T18:35:33.956Z,51.48
2022-09-01T18:39:00.334Z,52.72
2022-09-01T18:42:39.108Z,55.29
2022-09-01T18:45:50.319Z,55.49
2022-09-01T18:49:01.249Z,57.34
2022-09-01T18:52:40.796Z,58.81
2022-09-01T18:56:14.196Z,57.59
2022-09-01T18:59:37.062Z,57.74
2022-09-01T19:02:51.776Z,59.99
2022-09-01T19:06:09.475Z,60.81
2022-09-01T19:09:30.974Z,62.40
2022-09-01T19:13:11.937Z,62.52
2022-09-01T19:16:49.209Z,64.32
2022-09-01T19:20:02.606Z,62.96
2022-09-01T19:23:17.091Z,64.19
2022-09-01T19:26:23.433Z,64.25
2022-09-01T19:29:46.910Z,65.59
2022-09-01T19:32:50.441Z,66.19
2022-09-01T19:35:57.678Z,64.35
2022-09-01T19:38:59.806Z,67.14
2022-09-01T19:42:07.140Z,66.53
2022-09-01T19:45:59.530Z,68.50
2022-09-01T19:49:15.929Z,68.50
2022-09-01T19:52:35.055Z,68.07
2022-09-01T19:56:00.538Z,66.38
2022-09-01T19:59:27.595Z,67.85
2022-09-01T20:02:37.285Z,66.54
2022-09-01T20:05:46.063Z,66.75
2022-09-01T20:09:07.828Z,67.59
2022-09-01T20:12:31.315Z,66.85
2022-09-01T20:16:02.186Z,68.85
2022-09-01T20:19:44.730Z,69.99
2022-09-01T20:22:46.918Z,68.27
2022-09-01T20:26:16.490Z,71.92
2022-09-01T20:29:41.211Z,69.82
2022-09-01T20:33:05.198Z,70.37
2022-09-01T20:36:36.663Z,70.13
2022-09-01T20:40:01.024Z,69.85
2022-09-01T20:43:22.601Z,70.21
2022-09-01T20:46:26.470Z,69.04
2022-09-01T20:49:28.762Z,69.56
2022-09-01T20:52:49.909Z,72.14
2022-09-01T20:56:40.467Z,72.10
2022-09-01T20:59:49.034Z,72.00
2022-09-01T21:03:18.687Z,72.65
2022-09-01T21:06:48.530Z,73.61
2022-09-01T21:10:07.486Z,72.53
2022-09-01T21:13:25.235Z,71.80
2022-09-01T21:17:10.690Z,72.68
2022-09-01T21:20:44.345Z,73.54
2022-09-01T21:23:48.294Z,71.72
2022-09-01T21:26:52.157Z,72.32
2022-09-01T21:30:09.508Z,72.13
2022-09-01T21:33:11.607Z,71.45
2022-09-01T21:36:13.690Z,70.52
2022-09-01T21:39:15.838Z,70.00
2022-09-01T21:42:17.919Z,69.93
2022-09-01T21:45:20.480Z,70.27
2022-09-01T21:48:22.711Z,69.90
2022-09-01T21:51:24.794Z,69.71
2022-09-01T21:54:26.924Z,70.20
2022-09-01T21:57:29.060Z,70.11
2022-09-01T22:00:33.239Z,66.73
2022-09-01T22:03:35.505Z,68.38
2022-09-01T22:06:39.509Z,69.42
2022-09-01T22:09:43.102Z,69.43
2022-09-01T22:12:46.479Z,68.99
2022-09-01T22:15:51.020Z,70.02
2022-09-01T22:18:53.115Z,68.73
2022-09-01T22:21:55.235Z,68.46
2022-09-01T22:24:57.316Z,69.99
2022-09-01T22:28:05.151Z,68.90
2022-09-01T22:31:07.575Z,67.78
2022-09-01T22:34:09.799Z,67.09
2022-09-01T22:37:12.062Z,67.55
2022-09-01T22:40:15.577Z,67.70
2022-09-01T22:43:18.711Z,67.36
2022-09-01T22:46:22.073Z,67.24
2022-09-01T22:49:24.511Z,68.61
2022-09-01T22:52:26.572Z,67.87
2022-09-01T22:55:28.665Z,66.96
2022-09-01T22:58:30.795Z,67.67
2022-09-01T23:01:36.145Z,67.41
2022-09-01T23:04:39.363Z,66.97
2022-09-01T23:07:41.436Z,67.83
2022-09-01T23:10:43.559Z,68.23
2022-09-01T23:13:45.691Z,66.83
2022-09-01T23:16:51.079Z,65.21
2022-09-01T23:19:53.775Z,67.17
2022-09-01T23:22:56.209Z,68.42
2022-09-01T23:25:59.841Z,68.78
2022-09-01T23:29:02.424Z,68.25
2022-09-01T23:32:04.812Z,67.22
2022-09-01T23:35:07.739Z,66.76
2022-09-01T23:38:11.179Z,65.98
2022-09-01T23:41:17.145Z,67.14
2022-09-01T23:44:19.242Z,66.03
2022-09-01T23:47:21.331Z,66.25
2022-09-01T23:50:23.400Z,67.63
2022-09-01T23:53:29.207Z,67.73
2022-09-01T23:56:31.573Z,67.65
2022-09-01T23:59:38.756Z,67.96
